Ana Sayfa
METAR-TAF:

METAR-TAF

Havaalanları :

Mendoza, Arjantin

Enlem: 32-50S, Boylam: 068-47W, yükseklik: 705 m

Güncel hava durumu gözlemi

Rapor saat 21:00 UTC de 26 dakika önce yapıldı.
Rüzgar kuzeydoğudan 4 kt
Sıcaklık 17°C
Nem 36%
Basınç 1015 hPa
Görüş mesafesi 10 km veya daha fazla
1500 m altında bulut yok ve kümülonimbus yok

METAR: SAME 162100Z 05004KT CAVOK 17/02 Q1015

Saat: 18:26 (21:26 UTC)

Tahmin

Rapor saat 17:00 UTC de 4 saat ve 26 dakika önce yapıldı.
Ayın 16'si saat 18 UTC'den ayın 17'si saat 18 UTC'ye kadar geçerli Tahmin
Rüzgar kuzeydoğudan 5 kt
Görüş mesafesi 10 km veya daha fazla
1500 m altında bulut yok ve kümülonimbus yok
Dönüşüyor
ayın 17'si saat 04 UTC'den ayın 17'si saat 06 UTC'ye kadar
Rüzgar güneybatıdan 5 kt
Dönüşüyor
ayın 17'si saat 15 UTC'den ayın 17'si saat 17 UTC'ye kadar
Rüzgar kuzeydoğudan 5 kt

TAF: SAME 161700Z 1618/1718 05005KT CAVOK TX19/1620Z TN03/1711Z BECMG 1704/1706 22005KT BECMG 1715/1717 05005KT

4.000'den fazla havaalanı için hava durumu gözlemleri ve tahminleri (METAR ve TAF raporları).

Kullanılabilir istasyonlar harita üzerinde sarı ve kırmızı noktalarla gösterilir.

İstasyonun adını görmek için fareyi noktanın üzerinde gezdirin.

Sonrasında hava gözlem ve tahminlerini görmek için tıklayın.

Haritayı değiştirmek için: yaklaştırmak için siyah artı işaretli yeşil düğmeye ve uzaklaştırmak için de eksi işaretli düğmeye hızla tıklayın; bitişik haritalar için yeşil okları kullanın.


METAR-TAF: